sensor_id;sensor_type;location;lat;lon;timestamp;pressure;altitude;pressure_sealevel;temperature
66403;BMP180;53212;52.112;5.144;2023-03-03T00:00:42;102492.40;;;1.50
66403;BMP180;53212;52.112;5.144;2023-03-03T00:03:11;102497.80;;;1.50
66403;BMP180;53212;52.112;5.144;2023-03-03T00:05:38;102498.60;;;1.50
66403;BMP180;53212;52.112;5.144;2023-03-03T00:08:04;102500.40;;;1.40
66403;BMP180;53212;52.112;5.144;2023-03-03T00:10:30;102499.60;;;1.38
66403;BMP180;53212;52.112;5.144;2023-03-03T00:12:55;102496.80;;;1.30
66403;BMP180;53212;52.112;5.144;2023-03-03T00:15:23;102499.60;;;1.30
66403;BMP180;53212;52.112;5.144;2023-03-03T00:17:50;102499.00;;;1.28
66403;BMP180;53212;52.112;5.144;2023-03-03T00:20:37;102501.40;;;1.20
66403;BMP180;53212;52.112;5.144;2023-03-03T00:23:26;102500.60;;;1.20
66403;BMP180;53212;52.112;5.144;2023-03-03T00:25:53;102502.40;;;1.20
66403;BMP180;53212;52.112;5.144;2023-03-03T00:28:44;102505.20;;;1.20
66403;BMP180;53212;52.112;5.144;2023-03-03T00:31:28;102500.60;;;1.10
66403;BMP180;53212;52.112;5.144;2023-03-03T00:33:56;102501.20;;;1.10
66403;BMP180;53212;52.112;5.144;2023-03-03T00:36:37;102501.00;;;1.10
66403;BMP180;53212;52.112;5.144;2023-03-03T00:39:34;102501.80;;;1.08
66403;BMP180;53212;52.112;5.144;2023-03-03T00:42:01;102503.00;;;1.04
66403;BMP180;53212;52.112;5.144;2023-03-03T00:44:51;102502.40;;;1.00
66403;BMP180;53212;52.112;5.144;2023-03-03T00:47:30;102502.80;;;1.00
66403;BMP180;53212;52.112;5.144;2023-03-03T00:52:35;102506.00;;;0.92
66403;BMP180;53212;52.112;5.144;2023-03-03T00:55:01;102508.00;;;0.90
66403;BMP180;53212;52.112;5.144;2023-03-03T00:57:28;102513.40;;;0.90
66403;BMP180;53212;52.112;5.144;2023-03-03T00:59:54;102517.20;;;0.90
66403;BMP180;53212;52.112;5.144;2023-03-03T01:02:20;102517.20;;;0.90
66403;BMP180;53212;52.112;5.144;2023-03-03T01:04:51;102520.20;;;0.90
66403;BMP180;53212;52.112;5.144;2023-03-03T01:07:16;102519.80;;;0.86
66403;BMP180;53212;52.112;5.144;2023-03-03T01:09:42;102518.20;;;0.86
66403;BMP180;53212;52.112;5.144;2023-03-03T01:12:08;102520.20;;;0.86
66403;BMP180;53212;52.112;5.144;2023-03-03T01:14:34;102518.80;;;0.80
66403;BMP180;53212;52.112;5.144;2023-03-03T01:16:59;102520.40;;;0.88
66403;BMP180;53212;52.112;5.144;2023-03-03T01:19:25;102518.20;;;0.82
66403;BMP180;53212;52.112;5.144;2023-03-03T01:21:50;102515.80;;;0.84
66403;BMP180;53212;52.112;5.144;2023-03-03T01:24:16;102515.20;;;0.90
66403;BMP180;53212;52.112;5.144;2023-03-03T01:26:41;102513.40;;;0.80
66403;BMP180;53212;52.112;5.144;2023-03-03T01:29:07;102516.40;;;0.86
66403;BMP180;53212;52.112;5.144;2023-03-03T01:31:32;102519.40;;;0.80
66403;BMP180;53212;52.112;5.144;2023-03-03T01:33:58;102519.60;;;0.80
66403;BMP180;53212;52.112;5.144;2023-03-03T01:36:25;102524.00;;;0.80
66403;BMP180;53212;52.112;5.144;2023-03-03T01:38:51;102520.80;;;0.80
66403;BMP180;53212;52.112;5.144;2023-03-03T01:41:16;102523.40;;;0.80
66403;BMP180;53212;52.112;5.144;2023-03-03T01:43:45;102524.40;;;0.80
66403;BMP180;53212;52.112;5.144;2023-03-03T01:52:41;102530.20;;;0.80
66403;BMP180;53212;52.112;5.144;2023-03-03T01:55:24;102529.20;;;0.80
66403;BMP180;53212;52.112;5.144;2023-03-03T01:58:03;102527.60;;;0.80
66403;BMP180;53212;52.112;5.144;2023-03-03T02:00:31;102530.00;;;0.80
66403;BMP180;53212;52.112;5.144;2023-03-03T02:02:58;102535.20;;;0.80
66403;BMP180;53212;52.112;5.144;2023-03-03T02:05:24;102530.40;;;0.80
66403;BMP180;53212;52.112;5.144;2023-03-03T02:07:51;102535.80;;;0.80
66403;BMP180;53212;52.112;5.144;2023-03-03T02:10:19;102533.20;;;0.80
66403;BMP180;53212;52.112;5.144;2023-03-03T02:12:50;102529.80;;;0.72
66403;BMP180;53212;52.112;5.144;2023-03-03T02:15:33;102529.20;;;0.70
66403;BMP180;53212;52.112;5.144;2023-03-03T02:18:12;102535.40;;;0.70
66403;BMP180;53212;52.112;5.144;2023-03-03T02:26:16;102529.20;;;0.70
66403;BMP180;53212;52.112;5.144;2023-03-03T02:28:43;102528.20;;;0.70
66403;BMP180;53212;52.112;5.144;2023-03-03T02:31:13;102524.60;;;0.60
66403;BMP180;53212;52.112;5.144;2023-03-03T02:33:45;102526.60;;;0.60
66403;BMP180;53212;52.112;5.144;2023-03-03T02:36:36;102529.00;;;0.60
66403;BMP180;53212;52.112;5.144;2023-03-03T02:39:22;102526.60;;;0.60
66403;BMP180;53212;52.112;5.144;2023-03-03T02:44:23;102527.80;;;0.60
66403;BMP180;53212;52.112;5.144;2023-03-03T02:46:50;102524.60;;;0.60
66403;BMP180;53212;52.112;5.144;2023-03-03T02:49:31;102522.00;;;0.60
66403;BMP180;53212;52.112;5.144;2023-03-03T02:51:59;102525.80;;;0.66
66403;BMP180;53212;52.112;5.144;2023-03-03T02:54:26;102529.60;;;0.64
66403;BMP180;53212;52.112;5.144;2023-03-03T02:56:52;102528.60;;;0.60
66403;BMP180;53212;52.112;5.144;2023-03-03T02:59:18;102528.00;;;0.64
66403;BMP180;53212;52.112;5.144;2023-03-03T03:01:45;102535.00;;;0.64
66403;BMP180;53212;52.112;5.144;2023-03-03T03:04:24;102534.60;;;0.70
66403;BMP180;53212;52.112;5.144;2023-03-03T03:06:50;102530.60;;;0.70
66403;BMP180;53212;52.112;5.144;2023-03-03T03:09:17;102531.40;;;0.70
66403;BMP180;53212;52.112;5.144;2023-03-03T03:11:42;102530.40;;;0.70
66403;BMP180;53212;52.112;5.144;2023-03-03T03:14:11;102529.20;;;0.70
66403;BMP180;53212;52.112;5.144;2023-03-03T03:16:37;102528.00;;;0.74
66403;BMP180;53212;52.112;5.144;2023-03-03T03:19:04;102528.40;;;0.76
66403;BMP180;53212;52.112;5.144;2023-03-03T03:21:30;102524.40;;;0.80
66403;BMP180;53212;52.112;5.144;2023-03-03T03:23:56;102527.00;;;0.80
66403;BMP180;53212;52.112;5.144;2023-03-03T03:26:22;102528.60;;;0.80
66403;BMP180;53212;52.112;5.144;2023-03-03T03:28:48;102525.80;;;0.80
66403;BMP180;53212;52.112;5.144;2023-03-03T03:31:15;102521.60;;;0.80
66403;BMP180;53212;52.112;5.144;2023-03-03T03:33:40;102523.60;;;0.80
66403;BMP180;53212;52.112;5.144;2023-03-03T03:36:07;102527.60;;;0.80
66403;BMP180;53212;52.112;5.144;2023-03-03T03:38:34;102524.00;;;0.80
66403;BMP180;53212;52.112;5.144;2023-03-03T03:41:01;102527.40;;;0.80
66403;BMP180;53212;52.112;5.144;2023-03-03T03:43:28;102530.60;;;0.80
66403;BMP180;53212;52.112;5.144;2023-03-03T03:45:53;102528.40;;;0.80
66403;BMP180;53212;52.112;5.144;2023-03-03T03:48:19;102532.20;;;0.82
66403;BMP180;53212;52.112;5.144;2023-03-03T03:50:49;102529.40;;;0.90
66403;BMP180;53212;52.112;5.144;2023-03-03T03:53:16;102531.80;;;0.90
66403;BMP180;53212;52.112;5.144;2023-03-03T03:55:44;102527.80;;;0.90
66403;BMP180;53212;52.112;5.144;2023-03-03T03:58:16;102536.20;;;0.90
66403;BMP180;53212;52.112;5.144;2023-03-03T04:00:44;102537.80;;;0.90
66403;BMP180;53212;52.112;5.144;2023-03-03T04:03:10;102540.00;;;0.92
66403;BMP180;53212;52.112;5.144;2023-03-03T04:05:36;102540.20;;;1.00
66403;BMP180;53212;52.112;5.144;2023-03-03T04:08:02;102544.60;;;1.00
66403;BMP180;53212;52.112;5.144;2023-03-03T04:10:28;102546.20;;;1.06
66403;BMP180;53212;52.112;5.144;2023-03-03T04:12:53;102549.80;;;1.10
66403;BMP180;53212;52.112;5.144;2023-03-03T04:15:19;102551.20;;;1.10
66403;BMP180;53212;52.112;5.144;2023-03-03T04:17:44;102544.00;;;1.06
66403;BMP180;53212;52.112;5.144;2023-03-03T04:20:14;102547.00;;;1.10
66403;BMP180;53212;52.112;5.144;2023-03-03T04:22:41;102544.20;;;1.10
66403;BMP180;53212;52.112;5.144;2023-03-03T04:25:07;102546.80;;;1.10
66403;BMP180;53212;52.112;5.144;2023-03-03T04:27:35;102546.00;;;1.10
66403;BMP180;53212;52.112;5.144;2023-03-03T04:30:03;102544.40;;;1.10
66403;BMP180;53212;52.112;5.144;2023-03-03T04:32:29;102546.00;;;1.10
66403;BMP180;53212;52.112;5.144;2023-03-03T04:34:55;102547.00;;;1.10
66403;BMP180;53212;52.112;5.144;2023-03-03T04:37:21;102549.20;;;1.10
66403;BMP180;53212;52.112;5.144;2023-03-03T04:39:46;102554.60;;;1.10
66403;BMP180;53212;52.112;5.144;2023-03-03T04:42:12;102553.40;;;1.10
66403;BMP180;53212;52.112;5.144;2023-03-03T04:44:37;102553.40;;;1.10
66403;BMP180;53212;52.112;5.144;2023-03-03T04:47:03;102554.00;;;1.10
66403;BMP180;53212;52.112;5.144;2023-03-03T04:49:28;102553.00;;;1.10
66403;BMP180;53212;52.112;5.144;2023-03-03T04:51:54;102552.80;;;1.10
66403;BMP180;53212;52.112;5.144;2023-03-03T04:54:19;102551.20;;;1.10
66403;BMP180;53212;52.112;5.144;2023-03-03T04:56:45;102552.60;;;1.10
66403;BMP180;53212;52.112;5.144;2023-03-03T04:59:10;102554.20;;;1.20
66403;BMP180;53212;52.112;5.144;2023-03-03T05:01:36;102555.40;;;1.20
66403;BMP180;53212;52.112;5.144;2023-03-03T05:04:02;102549.20;;;1.20
66403;BMP180;53212;52.112;5.144;2023-03-03T05:06:27;102561.40;;;1.20
66403;BMP180;53212;52.112;5.144;2023-03-03T05:08:53;102551.80;;;1.20
66403;BMP180;53212;52.112;5.144;2023-03-03T05:11:19;102550.20;;;1.22
66403;BMP180;53212;52.112;5.144;2023-03-03T05:13:44;102548.60;;;1.30
66403;BMP180;53212;52.112;5.144;2023-03-03T05:16:10;102549.60;;;1.30
66403;BMP180;53212;52.112;5.144;2023-03-03T05:18:36;102546.20;;;1.30
66403;BMP180;53212;52.112;5.144;2023-03-03T05:21:01;102543.00;;;1.30
66403;BMP180;53212;52.112;5.144;2023-03-03T05:23:27;102542.20;;;1.30
66403;BMP180;53212;52.112;5.144;2023-03-03T05:25:52;102545.20;;;1.40
66403;BMP180;53212;52.112;5.144;2023-03-03T05:28:17;102548.00;;;1.40
66403;BMP180;53212;52.112;5.144;2023-03-03T05:30:43;102549.40;;;1.40
66403;BMP180;53212;52.112;5.144;2023-03-03T05:33:12;102546.80;;;1.40
66403;BMP180;53212;52.112;5.144;2023-03-03T05:35:38;102550.00;;;1.50
66403;BMP180;53212;52.112;5.144;2023-03-03T05:38:03;102550.80;;;1.50
66403;BMP180;53212;52.112;5.144;2023-03-03T05:40:29;102547.60;;;1.50
66403;BMP180;53212;52.112;5.144;2023-03-03T05:42:54;102551.20;;;1.50
66403;BMP180;53212;52.112;5.144;2023-03-03T05:45:20;102550.60;;;1.58
66403;BMP180;53212;52.112;5.144;2023-03-03T05:47:51;102548.80;;;1.60
66403;BMP180;53212;52.112;5.144;2023-03-03T05:50:21;102542.60;;;1.60
66403;BMP180;53212;52.112;5.144;2023-03-03T05:52:51;102545.20;;;1.60
66403;BMP180;53212;52.112;5.144;2023-03-03T05:55:18;102546.00;;;1.60
66403;BMP180;53212;52.112;5.144;2023-03-03T05:57:44;102546.20;;;1.60
66403;BMP180;53212;52.112;5.144;2023-03-03T06:00:12;102544.80;;;1.60
66403;BMP180;53212;52.112;5.144;2023-03-03T06:02:38;102549.40;;;1.70
66403;BMP180;53212;52.112;5.144;2023-03-03T06:05:04;102543.60;;;1.70
66403;BMP180;53212;52.112;5.144;2023-03-03T06:07:30;102555.20;;;1.70
66403;BMP180;53212;52.112;5.144;2023-03-03T06:09:55;102555.00;;;1.70
66403;BMP180;53212;52.112;5.144;2023-03-03T06:12:21;102557.60;;;1.70
66403;BMP180;53212;52.112;5.144;2023-03-03T06:14:46;102556.40;;;1.70
66403;BMP180;53212;52.112;5.144;2023-03-03T06:17:12;102563.00;;;1.70
66403;BMP180;53212;52.112;5.144;2023-03-03T06:19:37;102568.40;;;1.70
66403;BMP180;53212;52.112;5.144;2023-03-03T06:22:03;102571.00;;;1.70
66403;BMP180;53212;52.112;5.144;2023-03-03T06:24:28;102572.40;;;1.70
66403;BMP180;53212;52.112;5.144;2023-03-03T06:26:57;102569.00;;;1.70
66403;BMP180;53212;52.112;5.144;2023-03-03T06:29:22;102568.40;;;1.78
66403;BMP180;53212;52.112;5.144;2023-03-03T06:31:48;102572.60;;;1.80
66403;BMP180;53212;52.112;5.144;2023-03-03T06:34:13;102581.20;;;1.80
66403;BMP180;53212;52.112;5.144;2023-03-03T06:36:39;102578.20;;;1.80
66403;BMP180;53212;52.112;5.144;2023-03-03T06:39:04;102574.00;;;1.80
66403;BMP180;53212;52.112;5.144;2023-03-03T06:41:30;102576.80;;;1.86
66403;BMP180;53212;52.112;5.144;2023-03-03T06:43:56;102578.40;;;1.90
66403;BMP180;53212;52.112;5.144;2023-03-03T06:46:22;102581.40;;;1.90
66403;BMP180;53212;52.112;5.144;2023-03-03T06:48:48;102583.40;;;1.90
66403;BMP180;53212;52.112;5.144;2023-03-03T06:51:36;102588.00;;;1.92
66403;BMP180;53212;52.112;5.144;2023-03-03T06:54:14;102594.20;;;2.00
66403;BMP180;53212;52.112;5.144;2023-03-03T06:56:42;102595.60;;;2.00
66403;BMP180;53212;52.112;5.144;2023-03-03T06:59:16;102595.60;;;2.00
66403;BMP180;53212;52.112;5.144;2023-03-03T07:01:43;102603.60;;;2.00
66403;BMP180;53212;52.112;5.144;2023-03-03T07:06:44;102604.80;;;2.10
66403;BMP180;53212;52.112;5.144;2023-03-03T07:09:27;102607.60;;;2.10
66403;BMP180;53212;52.112;5.144;2023-03-03T07:12:10;102605.00;;;2.10
66403;BMP180;53212;52.112;5.144;2023-03-03T07:14:45;102608.80;;;2.10
66403;BMP180;53212;52.112;5.144;2023-03-03T07:17:17;102611.80;;;2.10
66403;BMP180;53212;52.112;5.144;2023-03-03T07:19:44;102612.60;;;2.12
66403;BMP180;53212;52.112;5.144;2023-03-03T07:22:17;102619.80;;;2.20
66403;BMP180;53212;52.112;5.144;2023-03-03T07:24:56;102619.60;;;2.20
66403;BMP180;53212;52.112;5.144;2023-03-03T07:27:26;102622.80;;;2.30
66403;BMP180;53212;52.112;5.144;2023-03-03T07:30:00;102622.00;;;2.38
66403;BMP180;53212;52.112;5.144;2023-03-03T07:32:43;102619.00;;;2.40
66403;BMP180;53212;52.112;5.144;2023-03-03T07:35:29;102625.80;;;2.50
66403;BMP180;53212;52.112;5.144;2023-03-03T07:37:59;102625.60;;;2.50
66403;BMP180;53212;52.112;5.144;2023-03-03T07:40:34;102631.20;;;2.60
66403;BMP180;53212;52.112;5.144;2023-03-03T07:43:21;102633.20;;;2.64
66403;BMP180;53212;52.112;5.144;2023-03-03T07:45:49;102635.40;;;2.70
66403;BMP180;53212;52.112;5.144;2023-03-03T07:48:25;102631.60;;;2.70
66403;BMP180;53212;52.112;5.144;2023-03-03T07:50:54;102639.80;;;2.78
66403;BMP180;53212;52.112;5.144;2023-03-03T07:53:30;102641.80;;;2.80
66403;BMP180;53212;52.112;5.144;2023-03-03T07:55:59;102642.20;;;2.90
66403;BMP180;53212;52.112;5.144;2023-03-03T07:58:38;102652.60;;;3.00
66403;BMP180;53212;52.112;5.144;2023-03-03T08:01:43;102658.20;;;3.10
66403;BMP180;53212;52.112;5.144;2023-03-03T08:04:43;102658.40;;;3.20
66403;BMP180;53212;52.112;5.144;2023-03-03T08:07:17;102657.60;;;3.20
66403;BMP180;53212;52.112;5.144;2023-03-03T08:09:57;102658.00;;;3.30
66403;BMP180;53212;52.112;5.144;2023-03-03T08:12:41;102657.40;;;3.48
66403;BMP180;53212;52.112;5.144;2023-03-03T08:15:25;102664.20;;;3.50
66403;BMP180;53212;52.112;5.144;2023-03-03T08:17:54;102667.40;;;3.50
66403;BMP180;53212;52.112;5.144;2023-03-03T08:20:54;102667.20;;;3.60
66403;BMP180;53212;52.112;5.144;2023-03-03T08:23:20;102673.40;;;3.70
66403;BMP180;53212;52.112;5.144;2023-03-03T08:25:48;102678.40;;;3.70
66403;BMP180;53212;52.112;5.144;2023-03-03T08:28:14;102681.20;;;3.80
66403;BMP180;53212;52.112;5.144;2023-03-03T08:30:41;102679.80;;;3.80
66403;BMP180;53212;52.112;5.144;2023-03-03T08:33:06;102683.60;;;3.90
66403;BMP180;53212;52.112;5.144;2023-03-03T08:35:32;102686.40;;;3.90
66403;BMP180;53212;52.112;5.144;2023-03-03T08:37:57;102684.80;;;3.90
66403;BMP180;53212;52.112;5.144;2023-03-03T08:40:23;102682.80;;;3.90
66403;BMP180;53212;52.112;5.144;2023-03-03T08:42:49;102683.80;;;3.90
66403;BMP180;53212;52.112;5.144;2023-03-03T08:45:14;102689.00;;;3.90
66403;BMP180;53212;52.112;5.144;2023-03-03T08:47:40;102685.20;;;4.00
66403;BMP180;53212;52.112;5.144;2023-03-03T08:50:08;102687.60;;;4.20
66403;BMP180;53212;52.112;5.144;2023-03-03T08:52:33;102685.20;;;4.36
66403;BMP180;53212;52.112;5.144;2023-03-03T08:54:59;102691.20;;;4.50
66403;BMP180;53212;52.112;5.144;2023-03-03T08:57:24;102690.20;;;4.60
66403;BMP180;53212;52.112;5.144;2023-03-03T08:59:50;102690.20;;;4.70
66403;BMP180;53212;52.112;5.144;2023-03-03T09:02:15;102693.40;;;4.82
66403;BMP180;53212;52.112;5.144;2023-03-03T09:04:41;102689.80;;;5.00
66403;BMP180;53212;52.112;5.144;2023-03-03T09:07:07;102693.20;;;5.18
66403;BMP180;53212;52.112;5.144;2023-03-03T09:09:32;102692.80;;;5.30
66403;BMP180;53212;52.112;5.144;2023-03-03T09:12:02;102695.00;;;5.50
66403;BMP180;53212;52.112;5.144;2023-03-03T09:14:31;102697.40;;;5.60
66403;BMP180;53212;52.112;5.144;2023-03-03T09:16:57;102697.00;;;5.60
66403;BMP180;53212;52.112;5.144;2023-03-03T09:19:29;102694.20;;;5.48
66403;BMP180;53212;52.112;5.144;2023-03-03T09:22:10;102691.00;;;5.50
66403;BMP180;53212;52.112;5.144;2023-03-03T09:24:41;102688.40;;;5.50
66403;BMP180;53212;52.112;5.144;2023-03-03T09:27:18;102685.00;;;5.60
66403;BMP180;53212;52.112;5.144;2023-03-03T09:29:46;102689.60;;;5.50
66403;BMP180;53212;52.112;5.144;2023-03-03T09:34:49;102687.40;;;5.68
66403;BMP180;53212;52.112;5.144;2023-03-03T09:37:34;102693.60;;;5.76
66403;BMP180;53212;52.112;5.144;2023-03-03T09:43:41;102693.20;;;6.00
66403;BMP180;53212;52.112;5.144;2023-03-03T10:00:44;102701.00;;;6.40
66403;BMP180;53212;52.112;5.144;2023-03-03T10:03:45;102699.60;;;6.30
66403;BMP180;53212;52.112;5.144;2023-03-03T10:17:47;102694.00;;;6.60
66403;BMP180;53212;52.112;5.144;2023-03-03T10:20:37;102697.40;;;6.50
66403;BMP180;53212;52.112;5.144;2023-03-03T10:23:18;102697.00;;;6.70
66403;BMP180;53212;52.112;5.144;2023-03-03T10:34:49;102698.40;;;7.00
66403;BMP180;53212;52.112;5.144;2023-03-03T10:37:38;102696.60;;;7.20
66403;BMP180;53212;52.112;5.144;2023-03-03T10:40:33;102696.00;;;7.20
66403;BMP180;53212;52.112;5.144;2023-03-03T10:43:32;102701.00;;;7.22
66403;BMP180;53212;52.112;5.144;2023-03-03T10:46:45;102700.00;;;7.26
66403;BMP180;53212;52.112;5.144;2023-03-03T10:49:25;102701.00;;;7.30
66403;BMP180;53212;52.112;5.144;2023-03-03T10:54:59;102697.60;;;7.30
66403;BMP180;53212;52.112;5.144;2023-03-03T10:57:34;102703.40;;;7.30
66403;BMP180;53212;52.112;5.144;2023-03-03T11:06:24;102701.40;;;7.10
66403;BMP180;53212;52.112;5.144;2023-03-03T11:11:49;102700.60;;;7.40
66403;BMP180;53212;52.112;5.144;2023-03-03T11:14:53;102698.40;;;7.52
66403;BMP180;53212;52.112;5.144;2023-03-03T11:23:27;102691.80;;;7.50
66403;BMP180;53212;52.112;5.144;2023-03-03T11:29:26;102689.20;;;7.70
66403;BMP180;53212;52.112;5.144;2023-03-03T11:32:18;102690.20;;;7.70
66403;BMP180;53212;52.112;5.144;2023-03-03T11:35:06;102686.40;;;7.70
66403;BMP180;53212;52.112;5.144;2023-03-03T11:37:41;102687.40;;;7.60
66403;BMP180;53212;52.112;5.144;2023-03-03T11:40:25;102688.60;;;7.60
66403;BMP180;53212;52.112;5.144;2023-03-03T11:43:00;102687.60;;;7.58
66403;BMP180;53212;52.112;5.144;2023-03-03T11:45:39;102684.60;;;7.60
66403;BMP180;53212;52.112;5.144;2023-03-03T11:48:20;102689.00;;;7.60
66403;BMP180;53212;52.112;5.144;2023-03-03T11:53:32;102691.00;;;7.60
66403;BMP180;53212;52.112;5.144;2023-03-03T11:56:29;102683.80;;;7.80
66403;BMP180;53212;52.112;5.144;2023-03-03T12:01:55;102674.80;;;8.20
66403;BMP180;53212;52.112;5.144;2023-03-03T12:04:30;102674.40;;;8.50
66403;BMP180;53212;52.112;5.144;2023-03-03T12:07:16;102675.80;;;8.80
66403;BMP180;53212;52.112;5.144;2023-03-03T12:12:24;102668.40;;;9.12
66403;BMP180;53212;52.112;5.144;2023-03-03T12:15:25;102666.80;;;9.20
66403;BMP180;53212;52.112;5.144;2023-03-03T12:24:00;102655.20;;;9.38
66403;BMP180;53212;52.112;5.144;2023-03-03T12:35:41;102652.80;;;8.90
66403;BMP180;53212;52.112;5.144;2023-03-03T12:38:34;102654.20;;;8.70
66403;BMP180;53212;52.112;5.144;2023-03-03T12:41:19;102654.40;;;8.60
66403;BMP180;53212;52.112;5.144;2023-03-03T12:43:54;102661.40;;;8.60
66403;BMP180;53212;52.112;5.144;2023-03-03T12:46:58;102655.60;;;8.50
66403;BMP180;53212;52.112;5.144;2023-03-03T12:49:47;102650.60;;;8.40
66403;BMP180;53212;52.112;5.144;2023-03-03T12:52:32;102643.80;;;8.30
66403;BMP180;53212;52.112;5.144;2023-03-03T12:58:48;102634.00;;;8.90
66403;BMP180;53212;52.112;5.144;2023-03-03T13:01:38;102633.40;;;9.36
66403;BMP180;53212;52.112;5.144;2023-03-03T13:04:48;102631.80;;;9.60
66403;BMP180;53212;52.112;5.144;2023-03-03T13:07:26;102636.80;;;9.50
66403;BMP180;53212;52.112;5.144;2023-03-03T13:15:11;102636.60;;;9.30
66403;BMP180;53212;52.112;5.144;2023-03-03T13:17:51;102639.80;;;9.20
66403;BMP180;53212;52.112;5.144;2023-03-03T13:29:33;102628.60;;;9.60
66403;BMP180;53212;52.112;5.144;2023-03-03T13:35:37;102633.40;;;9.70
66403;BMP180;53212;52.112;5.144;2023-03-03T13:38:10;102632.00;;;9.60
66403;BMP180;53212;52.112;5.144;2023-03-03T13:41:38;102629.80;;;9.48
66403;BMP180;53212;52.112;5.144;2023-03-03T13:44:10;102634.40;;;9.28
66403;BMP180;53212;52.112;5.144;2023-03-03T13:47:02;102631.40;;;9.20
66403;BMP180;53212;52.112;5.144;2023-03-03T13:52:12;102625.20;;;9.20
66403;BMP180;53212;52.112;5.144;2023-03-03T13:54:56;102634.00;;;9.20
66403;BMP180;53212;52.112;5.144;2023-03-03T14:00:59;102636.60;;;9.10
66403;BMP180;53212;52.112;5.144;2023-03-03T14:06:18;102631.40;;;9.00
66403;BMP180;53212;52.112;5.144;2023-03-03T14:17:06;102631.20;;;8.82
66403;BMP180;53212;52.112;5.144;2023-03-03T14:19:43;102632.60;;;8.86
66403;BMP180;53212;52.112;5.144;2023-03-03T14:22:54;102633.00;;;8.80
66403;BMP180;53212;52.112;5.144;2023-03-03T14:25:21;102628.60;;;8.80
66403;BMP180;53212;52.112;5.144;2023-03-03T14:30:36;102625.40;;;8.80
66403;BMP180;53212;52.112;5.144;2023-03-03T14:35:40;102628.40;;;8.78
66403;BMP180;53212;52.112;5.144;2023-03-03T14:38:22;102625.40;;;8.70
66403;BMP180;53212;52.112;5.144;2023-03-03T14:40:48;102622.80;;;8.60
66403;BMP180;53212;52.112;5.144;2023-03-03T14:43:57;102618.20;;;8.60
66403;BMP180;53212;52.112;5.144;2023-03-03T14:49:01;102619.00;;;8.52
66403;BMP180;53212;52.112;5.144;2023-03-03T14:51:45;102620.20;;;8.50
66403;BMP180;53212;52.112;5.144;2023-03-03T14:54:36;102616.60;;;8.50
66403;BMP180;53212;52.112;5.144;2023-03-03T14:57:41;102618.00;;;8.42
66403;BMP180;53212;52.112;5.144;2023-03-03T15:03:21;102616.20;;;8.40
66403;BMP180;53212;52.112;5.144;2023-03-03T15:05:51;102614.20;;;8.34
66403;BMP180;53212;52.112;5.144;2023-03-03T15:08:33;102612.20;;;8.40
66403;BMP180;53212;52.112;5.144;2023-03-03T15:11:31;102614.00;;;8.40
66403;BMP180;53212;52.112;5.144;2023-03-03T15:14:30;102607.20;;;8.40
66403;BMP180;53212;52.112;5.144;2023-03-03T15:17:34;102603.00;;;8.40
66403;BMP180;53212;52.112;5.144;2023-03-03T15:28:57;102592.40;;;8.40
66403;BMP180;53212;52.112;5.144;2023-03-03T15:34:39;102594.40;;;8.40
66403;BMP180;53212;52.112;5.144;2023-03-03T15:48:04;102588.20;;;8.10
66403;BMP180;53212;52.112;5.144;2023-03-03T15:50:42;102583.80;;;8.00
66403;BMP180;53212;52.112;5.144;2023-03-03T15:53:55;102587.60;;;8.00
66403;BMP180;53212;52.112;5.144;2023-03-03T16:02:32;102579.40;;;7.90
66403;BMP180;53212;52.112;5.144;2023-03-03T16:05:32;102574.60;;;7.80
66403;BMP180;53212;52.112;5.144;2023-03-03T16:08:02;102573.60;;;7.70
66403;BMP180;53212;52.112;5.144;2023-03-03T16:13:58;102579.40;;;7.56
66403;BMP180;53212;52.112;5.144;2023-03-03T16:16:46;102583.60;;;7.50
66403;BMP180;53212;52.112;5.144;2023-03-03T16:19:48;102585.00;;;7.50
66403;BMP180;53212;52.112;5.144;2023-03-03T16:26:09;102578.80;;;7.46
66403;BMP180;53212;52.112;5.144;2023-03-03T16:34:41;102585.20;;;7.30
66403;BMP180;53212;52.112;5.144;2023-03-03T16:37:32;102583.00;;;7.26
66403;BMP180;53212;52.112;5.144;2023-03-03T16:40:22;102578.60;;;7.20
66403;BMP180;53212;52.112;5.144;2023-03-03T16:42:59;102583.00;;;7.20
66403;BMP180;53212;52.112;5.144;2023-03-03T16:45:38;102581.40;;;7.10
66403;BMP180;53212;52.112;5.144;2023-03-03T16:48:36;102579.00;;;7.10
66403;BMP180;53212;52.112;5.144;2023-03-03T16:51:22;102574.00;;;7.02
66403;BMP180;53212;52.112;5.144;2023-03-03T16:54:04;102581.00;;;7.00
66403;BMP180;53212;52.112;5.144;2023-03-03T16:56:43;102574.00;;;7.00
66403;BMP180;53212;52.112;5.144;2023-03-03T16:59:30;102579.00;;;6.90
66403;BMP180;53212;52.112;5.144;2023-03-03T17:08:39;102587.40;;;6.80
66403;BMP180;53212;52.112;5.144;2023-03-03T17:14:12;102585.40;;;6.70
66403;BMP180;53212;52.112;5.144;2023-03-03T17:17:00;102588.60;;;6.70
66403;BMP180;53212;52.112;5.144;2023-03-03T17:20:38;102589.40;;;6.62
66403;BMP180;53212;52.112;5.144;2023-03-03T17:23:47;102595.00;;;6.60
66403;BMP180;53212;52.112;5.144;2023-03-03T17:29:55;102599.20;;;6.56
66403;BMP180;53212;52.112;5.144;2023-03-03T17:41:33;102603.60;;;6.50
66403;BMP180;53212;52.112;5.144;2023-03-03T17:46:52;102609.40;;;6.50
66403;BMP180;53212;52.112;5.144;2023-03-03T18:01:06;102624.80;;;6.50
66403;BMP180;53212;52.112;5.144;2023-03-03T18:03:49;102629.60;;;6.48
66403;BMP180;53212;52.112;5.144;2023-03-03T18:06:50;102627.20;;;6.40
66403;BMP180;53212;52.112;5.144;2023-03-03T18:12:37;102630.40;;;6.40
66403;BMP180;53212;52.112;5.144;2023-03-03T18:23:39;102643.40;;;6.40
66403;BMP180;53212;52.112;5.144;2023-03-03T18:26:39;102640.80;;;6.34
66403;BMP180;53212;52.112;5.144;2023-03-03T18:29:27;102642.60;;;6.30
66403;BMP180;53212;52.112;5.144;2023-03-03T18:34:38;102645.00;;;6.30
66403;BMP180;53212;52.112;5.144;2023-03-03T18:37:34;102653.20;;;6.28
66403;BMP180;53212;52.112;5.144;2023-03-03T18:42:43;102664.20;;;6.20
66403;BMP180;53212;52.112;5.144;2023-03-03T18:48:10;102657.80;;;6.20
66403;BMP180;53212;52.112;5.144;2023-03-03T18:50:41;102657.80;;;6.20
66403;BMP180;53212;52.112;5.144;2023-03-03T18:53:25;102654.40;;;6.10
66403;BMP180;53212;52.112;5.144;2023-03-03T18:55:58;102653.80;;;6.10
66403;BMP180;53212;52.112;5.144;2023-03-03T18:58:36;102656.00;;;6.10
66403;BMP180;53212;52.112;5.144;2023-03-03T19:04:16;102654.20;;;6.10
66403;BMP180;53212;52.112;5.144;2023-03-03T19:07:12;102658.20;;;6.10